Aérodrome :
LOGIN :

S'inscrire | Disclaimer

   EN    FR    IT 

 










Légende :    VFR   VFR Marginal   IFR   IFR Intensif   IFR Très Intensif
Visi : 
Plafond : 
>= 8 km
>= 3000ft
5 à 8 km
1000 à 3000 ft
1500m à 5 km
500 à 1000 ft
800 à 1500m
200 à 500 ft
< 800m
< 200 ft
Symboles :   Orages  Brouillard  Fortes neiges  Fortes précipitations  Vent > 20 kt
SIGMETs :   Divers  Orages  Givrage  Turbulence  Onde Orograph.  Cendres Volcan.






- Altitude de l'aérodrome : 142 ft
- Code IATA : ALC


LEAL - Alicante

DERNIER METAR :
  • 280000Z 31008KT CAVOK 18/01 Q1020 NOSIG

METARs EXPIRÉS :
  • 272330Z 31008KT CAVOK 19/01 Q1020 NOSIG
  • 272300Z 31008KT CAVOK 19/02 Q1020 NOSIG
  • 272230Z 31010KT CAVOK 19/01 Q1020 NOSIG
  • 272200Z 28010KT 260V320 CAVOK 18/02 Q1020 NOSIG
  • 272130Z 27008KT CAVOK 17/03 Q1020 NOSIG

TAF TAF LEAL
Valide du 28 à 00h jusqu'au 29 à 00h UTC


272300Z 2800/2824 32009KT CAVOK TX22/2812Z TN09/2806Z
BECMG 2801/2803 VRB04KT
TEMPO 2803/2806 29006KT
BECMG 2811/2813 11008KT
BECMG 2818/2820 VRB04KT



MET'MAP, la Météo Aéronautique d'un coup d'oeil ! - Copyright ORBIFLY Décembre 2007 - Disclaimer

ORBIFLY MET'MAP TEAM :

Programmation & Développement : Alexandra Zaïnal
Sur une idée originale de : Baudouin d'Aumeries
Assistance à la programmation : Marc-Olivier Méhu
Soutien technique & logistique : Manuel Goepfert

Contact : metmap@orbifly.com




SOURCES & CREDITS :

   NOAA